C6534 KEFD-KEFD

Flight info

Callsign C6534
Flight time N/A
Altitude 2000
Route VFR
Aircraft AS65/L-VGD/C

Departure

Time 2026-04-25 17:30
Airport Ellington Airport (KEFD)

Arrival

Time N/A
Airport Ellington Airport (KEFD)
Time Latitude Longitude Altitude Speed Heading
2026-04-25 17:25 29.60994 -95.16785 38 ft 0 kts 179°
2026-04-25 17:29 29.60990 -95.16786 46 ft 0 kts 158°
2026-04-25 17:29 29.60991 -95.16786 45 ft 0 kts 160°
2026-04-25 17:30 29.60917 -95.16747 281 ft 28 kts 162°
2026-04-25 17:30 29.60618 -95.16579 519 ft 69 kts 156°
2026-04-25 17:30 29.60163 -95.16306 779 ft 72 kts 156°
2026-04-25 17:30 29.59743 -95.16031 874 ft 68 kts 157°
2026-04-25 17:31 29.59326 -95.15763 762 ft 69 kts 156°
2026-04-25 17:31 29.58903 -95.15528 715 ft 66 kts 157°
2026-04-25 17:31 29.58486 -95.15307 693 ft 67 kts 157°
2026-04-25 17:31 29.58071 -95.15085 687 ft 67 kts 156°
2026-04-25 17:32 29.57767 -95.14647 676 ft 73 kts 127°
2026-04-25 17:32 29.57534 -95.14080 654 ft 93 kts 124°
2026-04-25 17:32 29.57185 -95.13304 660 ft 122 kts 123°
2026-04-25 17:32 29.56782 -95.12456 686 ft 115 kts 125°
2026-04-25 17:33 29.56402 -95.11659 671 ft 113 kts 124°
2026-04-25 17:33 29.56023 -95.10865 669 ft 113 kts 124°
2026-04-25 17:33 29.55639 -95.10072 671 ft 114 kts 124°
2026-04-25 17:33 29.55249 -95.09275 669 ft 116 kts 124°
2026-04-25 17:34 29.54943 -95.08419 669 ft 118 kts 109°
2026-04-25 17:34 29.54930 -95.07468 669 ft 121 kts 92°
2026-04-25 17:34 29.55056 -95.06484 667 ft 129 kts 88°
2026-04-25 17:34 29.55179 -95.05475 676 ft 125 kts 89°
2026-04-25 17:35 29.55266 -95.04500 668 ft 124 kts 94°
2026-04-25 17:35 29.55325 -95.03502 667 ft 127 kts 92°
2026-04-25 17:35 29.55300 -95.02514 672 ft 119 kts 107°
2026-04-25 17:35 29.54913 -95.01695 627 ft 118 kts 131°
2026-04-25 17:36 29.54375 -95.00980 565 ft 119 kts 134°
2026-04-25 17:36 29.53803 -95.00302 542 ft 117 kts 138°
2026-04-25 17:36 29.53332 -94.99791 527 ft 120 kts 141°
2026-04-25 17:36 29.52739 -94.99193 549 ft 117 kts 142°
2026-04-25 17:37 29.52112 -94.98629 538 ft 114 kts 144°
2026-04-25 17:37 29.51525 -94.98011 539 ft 116 kts 129°
2026-04-25 17:37 29.51242 -94.97156 534 ft 115 kts 116°
2026-04-25 17:37 29.51003 -94.96264 536 ft 118 kts 112°
2026-04-25 17:38 29.50791 -94.95374 539 ft 113 kts 110°
2026-04-25 17:38 29.50728 -94.95090 529 ft 114 kts 112°
2026-04-25 17:38 29.50431 -94.93491 540 ft 126 kts 105°
2026-04-25 17:38 29.50281 -94.92536 542 ft 117 kts 109°
2026-04-25 17:39 29.49826 -94.91772 540 ft 119 kts 143°
2026-04-25 17:39 29.49060 -94.91409 542 ft 120 kts 167°
2026-04-25 17:39 29.48305 -94.91111 547 ft 113 kts 165°
2026-04-25 17:39 29.47558 -94.90813 536 ft 117 kts 164°
2026-04-25 17:40 29.46809 -94.90453 543 ft 114 kts 162°
2026-04-25 17:40 29.46099 -94.90105 546 ft 108 kts 160°
2026-04-25 17:40 29.45389 -94.89792 548 ft 111 kts 163°
2026-04-25 17:40 29.44669 -94.89444 539 ft 116 kts 161°
2026-04-25 17:41 29.43924 -94.89081 558 ft 114 kts 160°
2026-04-25 17:41 29.43181 -94.88750 550 ft 116 kts 161°
2026-04-25 17:41 29.42419 -94.88449 551 ft 113 kts 165°
2026-04-25 17:41 29.41679 -94.88191 547 ft 110 kts 166°
2026-04-25 17:42 29.40912 -94.87948 549 ft 117 kts 165°
2026-04-25 17:42 29.40145 -94.87732 552 ft 111 kts 166°
2026-04-25 17:42 29.39381 -94.87544 554 ft 112 kts 171°
2026-04-25 17:42 29.38625 -94.87390 551 ft 110 kts 169°
2026-04-25 17:43 29.37864 -94.87262 554 ft 110 kts 171°
2026-04-25 17:43 29.37106 -94.87160 563 ft 107 kts 174°
2026-04-25 17:43 29.36365 -94.87096 553 ft 109 kts 175°
2026-04-25 17:43 29.35594 -94.87058 567 ft 114 kts 178°
2026-04-25 17:44 29.34822 -94.87057 558 ft 110 kts 180°
2026-04-25 17:44 29.34044 -94.87096 557 ft 113 kts 183°
2026-04-25 17:44 29.33270 -94.87169 558 ft 109 kts 186°
2026-04-25 17:44 29.32499 -94.87276 554 ft 114 kts 186°
2026-04-25 17:45 29.31731 -94.87417 556 ft 109 kts 190°
2026-04-25 17:45 29.31479 -94.87471 551 ft 110 kts 192°
2026-04-25 17:45 29.30191 -94.87787 556 ft 115 kts 196°
2026-04-25 17:45 29.29393 -94.87763 560 ft 117 kts 164°
2026-04-25 17:46 29.28750 -94.87217 556 ft 119 kts 129°
2026-04-25 17:46 29.28489 -94.86327 555 ft 121 kts 96°
2026-04-25 17:46 29.28709 -94.85385 556 ft 127 kts 67°
2026-04-25 17:46 29.29212 -94.84513 562 ft 132 kts 62°
2026-04-25 17:47 29.29665 -94.83630 561 ft 127 kts 71°
2026-04-25 17:47 29.29962 -94.82675 558 ft 126 kts 85°
2026-04-25 17:47 29.30108 -94.81708 562 ft 119 kts 91°
2026-04-25 17:47 29.30155 -94.80780 558 ft 115 kts 96°
2026-04-25 17:48 29.30122 -94.78875 554 ft 122 kts 101°
2026-04-25 17:48 29.30083 -94.77908 564 ft 118 kts 101°
2026-04-25 17:48 29.30036 -94.76998 560 ft 115 kts 101°
2026-04-25 17:49 29.29984 -94.76073 545 ft 116 kts 101°
2026-04-25 17:49 29.29934 -94.75128 525 ft 121 kts 102°
2026-04-25 17:49 29.29891 -94.74184 523 ft 119 kts 99°
2026-04-25 17:49 29.29846 -94.73228 529 ft 117 kts 100°
2026-04-25 17:50 29.29802 -94.72307 512 ft 120 kts 102°
2026-04-25 17:50 29.29759 -94.71373 516 ft 116 kts 103°
2026-04-25 17:50 29.29715 -94.70433 521 ft 116 kts 99°
2026-04-25 17:50 29.29672 -94.69517 515 ft 115 kts 100°
2026-04-25 17:51 29.29630 -94.68604 500 ft 116 kts 99°
2026-04-25 17:51 29.29583 -94.67661 505 ft 120 kts 102°
2026-04-25 17:51 29.29528 -94.66714 510 ft 116 kts 101°
2026-04-25 17:51 29.29474 -94.65813 500 ft 113 kts 101°
2026-04-25 17:52 29.29425 -94.64909 496 ft 116 kts 98°
2026-04-25 17:52 29.29410 -94.64606 495 ft 119 kts 97°
2026-04-25 17:52 29.29331 -94.63008 500 ft 118 kts 101°
2026-04-25 17:52 29.29286 -94.62056 498 ft 120 kts 100°
2026-04-25 17:53 29.29241 -94.61121 505 ft 118 kts 97°
2026-04-25 17:53 29.29191 -94.60176 502 ft 120 kts 97°
2026-04-25 17:53 29.29142 -94.59223 493 ft 122 kts 100°
2026-04-25 17:53 29.29097 -94.58240 499 ft 124 kts 98°
2026-04-25 17:54 29.29053 -94.57255 500 ft 124 kts 100°
2026-04-25 17:54 29.29005 -94.56289 510 ft 119 kts 101°
2026-04-25 17:54 29.28969 -94.55348 502 ft 120 kts 93°
2026-04-25 17:54 29.29292 -94.54431 495 ft 132 kts 58°
2026-04-25 17:55 29.30038 -94.53804 509 ft 133 kts 25°
2026-04-25 17:55 29.30647 -94.53673 502 ft 137 kts
2026-04-25 17:55 29.31550 -94.53948 505 ft 133 kts 330°
2026-04-25 17:55 29.32173 -94.54678 508 ft 128 kts 296°
2026-04-25 17:56 29.32368 -94.55631 505 ft 121 kts 264°
2026-04-25 17:56 29.32079 -94.56518 488 ft 123 kts 231°
2026-04-25 17:56 29.31405 -94.57058 511 ft 114 kts 198°
2026-04-25 17:56 29.30633 -94.57051 497 ft 116 kts 166°
2026-04-25 17:57 29.29918 -94.56624 505 ft 115 kts 151°
2026-04-25 17:57 29.29308 -94.56014 503 ft 117 kts 137°
2026-04-25 17:57 29.28849 -94.55265 505 ft 115 kts 121°
2026-04-25 17:57 29.28727 -94.54652 504 ft 120 kts 99°
2026-04-25 17:58 29.29145 -94.53426 500 ft 135 kts 53°
2026-04-25 17:58 29.29921 -94.52863 502 ft 135 kts 20°
2026-04-25 17:58 29.30816 -94.52834 517 ft 122 kts 348°
2026-04-25 17:58 29.31492 -94.53298 506 ft 112 kts 308°
2026-04-25 17:59 29.31784 -94.54071 506 ft 104 kts 272°
2026-04-25 17:59 29.31697 -94.54867 503 ft 100 kts 251°
2026-04-25 17:59 29.31464 -94.55657 499 ft 107 kts 248°
2026-04-25 17:59 29.31240 -94.56443 508 ft 100 kts 247°
2026-04-25 18:00 29.30882 -94.57098 498 ft 98 kts 223°
2026-04-25 18:00 29.30320 -94.57532 504 ft 95 kts 202°
2026-04-25 18:00 29.29689 -94.57664 506 ft 92 kts 177°
2026-04-25 18:00 29.29048 -94.57666 506 ft 92 kts 181°
2026-04-25 18:01 29.28406 -94.57688 497 ft 94 kts 183°
2026-04-25 18:01 29.27775 -94.57532 502 ft 95 kts 152°
2026-04-25 18:01 29.27363 -94.56930 504 ft 101 kts 113°
2026-04-25 18:01 29.27241 -94.56139 506 ft 101 kts 100°
2026-04-25 18:02 29.27207 -94.55331 502 ft 103 kts 98°
2026-04-25 18:02 29.27213 -94.54504 504 ft 106 kts 95°
2026-04-25 18:02 29.27318 -94.53663 501 ft 111 kts 74°
2026-04-25 18:02 29.27830 -94.53007 511 ft 113 kts 38°
2026-04-25 18:03 29.28597 -94.52767 504 ft 117 kts
2026-04-25 18:03 29.29403 -94.52708 508 ft 115 kts
2026-04-25 18:03 29.30211 -94.52706 508 ft 115 kts
2026-04-25 18:03 29.30953 -94.52975 504 ft 113 kts 326°
2026-04-25 18:04 29.31454 -94.53638 508 ft 107 kts 290°
2026-04-25 18:04 29.31559 -94.54445 506 ft 101 kts 266°
2026-04-25 18:04 29.31575 -94.55284 496 ft 109 kts 269°
2026-04-25 18:04 29.31593 -94.56150 501 ft 109 kts 269°
2026-04-25 18:05 29.31611 -94.56997 507 ft 103 kts 266°
2026-04-25 18:05 29.31553 -94.57803 499 ft 101 kts 245°
2026-04-25 18:05 29.31143 -94.58422 498 ft 99 kts 213°
2026-04-25 18:05 29.30503 -94.58625 502 ft 95 kts 183°
2026-04-25 18:06 29.29848 -94.58643 501 ft 94 kts 181°
2026-04-25 18:06 29.29196 -94.58668 498 ft 92 kts 183°
2026-04-25 18:06 29.28544 -94.58685 493 ft 95 kts 182°
2026-04-25 18:06 29.27886 -94.58693 495 ft 98 kts 180°
2026-04-25 18:07 29.27195 -94.58647 500 ft 99 kts 166°
2026-04-25 18:07 29.26669 -94.58205 498 ft 96 kts 130°
2026-04-25 18:07 29.26481 -94.57460 503 ft 99 kts 106°
2026-04-25 18:07 29.26430 -94.56669 500 ft 102 kts 101°
2026-04-25 18:08 29.26418 -94.55854 505 ft 102 kts 96°
2026-04-25 18:08 29.26419 -94.55049 508 ft 101 kts 95°
2026-04-25 18:08 29.26423 -94.54240 507 ft 102 kts 96°
2026-04-25 18:08 29.26428 -94.53416 500 ft 106 kts 96°
2026-04-25 18:09 29.26581 -94.52579 504 ft 112 kts 68°
2026-04-25 18:09 29.27151 -94.51974 511 ft 114 kts 32°
2026-04-25 18:09 29.27933 -94.51769 502 ft 117 kts
2026-04-25 18:09 29.28466 -94.51728 508 ft 115 kts
2026-04-25 18:10 29.29540 -94.51730 505 ft 115 kts
2026-04-25 18:10 29.30323 -94.51753 502 ft 112 kts
2026-04-25 18:10 29.31118 -94.51780 504 ft 115 kts 357°
2026-04-25 18:10 29.31851 -94.52085 496 ft 116 kts 324°
2026-04-25 18:11 29.32330 -94.52820 503 ft 113 kts 288°
2026-04-25 18:11 29.32421 -94.53672 501 ft 107 kts 269°
2026-04-25 18:11 29.32450 -94.54531 497 ft 109 kts 270°
2026-04-25 18:11 29.32467 -94.55372 506 ft 102 kts 269°
2026-04-25 18:12 29.32484 -94.56194 505 ft 101 kts 267°
2026-04-25 18:12 29.32494 -94.56998 497 ft 106 kts 268°
2026-04-25 18:12 29.32492 -94.57859 497 ft 109 kts 268°
2026-04-25 18:12 29.32425 -94.58730 499 ft 106 kts 249°
2026-04-25 18:13 29.32034 -94.59354 496 ft 96 kts 216°
2026-04-25 18:13 29.31399 -94.59582 496 ft 99 kts 184°
2026-04-25 18:13 29.30739 -94.59605 498 ft 92 kts 183°
2026-04-25 18:14 29.29461 -94.59647 495 ft 92 kts 182°
2026-04-25 18:14 29.28806 -94.59654 495 ft 96 kts 182°
2026-04-25 18:14 29.28131 -94.59654 499 ft 100 kts 180°
2026-04-25 18:14 29.27440 -94.59656 506 ft 94 kts 181°
2026-04-25 18:15 29.26803 -94.59661 496 ft 93 kts 180°
2026-04-25 18:15 29.26153 -94.59528 501 ft 95 kts 152°
2026-04-25 18:15 29.25736 -94.58993 497 ft 93 kts 118°
2026-04-25 18:15 29.25633 -94.58256 501 ft 94 kts 102°
2026-04-25 18:16 29.25600 -94.57499 495 ft 98 kts 98°
2026-04-25 18:16 29.25591 -94.56692 506 ft 103 kts 96°
2026-04-25 18:16 29.25594 -94.55072 500 ft 103 kts 98°
2026-04-25 18:17 29.25601 -94.54257 505 ft 102 kts 95°
2026-04-25 18:17 29.25604 -94.53451 505 ft 101 kts 95°
2026-04-25 18:17 29.25603 -94.52642 505 ft 102 kts 96°
2026-04-25 18:17 29.25645 -94.51811 495 ft 110 kts 82°
2026-04-25 18:18 29.26076 -94.51080 503 ft 115 kts 44°
2026-04-25 18:18 29.26810 -94.50740 507 ft 115 kts 15°
2026-04-25 18:18 29.27618 -94.50661 502 ft 117 kts
2026-04-25 18:18 29.28420 -94.50684 502 ft 116 kts 358°
2026-04-25 18:19 29.29220 -94.50735 506 ft 112 kts
2026-04-25 18:19 29.29998 -94.50781 503 ft 114 kts 358°
2026-04-25 18:19 29.30793 -94.50813 500 ft 114 kts
2026-04-25 18:19 29.31590 -94.50836 503 ft 115 kts
2026-04-25 18:20 29.32377 -94.50937 499 ft 115 kts 342°
2026-04-25 18:20 29.33006 -94.51478 499 ft 114 kts 304°
2026-04-25 18:20 29.33245 -94.52309 504 ft 108 kts 271°
2026-04-25 18:20 29.33287 -94.53158 498 ft 107 kts 269°
2026-04-25 18:21 29.33310 -94.54004 503 ft 106 kts 269°
2026-04-25 18:21 29.33324 -94.54845 504 ft 105 kts 268°
2026-04-25 18:21 29.33330 -94.55695 498 ft 108 kts 266°
2026-04-25 18:21 29.33329 -94.56542 497 ft 108 kts 268°
2026-04-25 18:22 29.33327 -94.57385 506 ft 103 kts 267°
2026-04-25 18:22 29.33328 -94.57661 504 ft 102 kts 267°
2026-04-25 18:22 29.33336 -94.59018 494 ft 106 kts 266°
2026-04-25 18:22 29.33214 -94.59864 494 ft 108 kts 241°
2026-04-25 18:23 29.32716 -94.60430 503 ft 96 kts 205°
2026-04-25 18:23 29.32076 -94.60549 494 ft 95 kts 181°
2026-04-25 18:23 29.31412 -94.60574 497 ft 93 kts 184°
2026-04-25 18:23 29.30773 -94.60592 497 ft 92 kts 180°
2026-04-25 18:24 29.30137 -94.60607 500 ft 91 kts 180°
2026-04-25 18:24 29.29486 -94.60615 486 ft 96 kts 182°
2026-04-25 18:24 29.28813 -94.60613 500 ft 96 kts 180°
2026-04-25 18:24 29.28122 -94.60611 502 ft 100 kts 180°
2026-04-25 18:25 29.27463 -94.60615 499 ft 90 kts 180°
2026-04-25 18:25 29.26823 -94.60618 493 ft 96 kts 180°
2026-04-25 18:25 29.26151 -94.60616 501 ft 95 kts 177°
2026-04-25 18:25 29.25499 -94.60570 498 ft 94 kts 167°
2026-04-25 18:26 29.24974 -94.60124 498 ft 97 kts 131°
2026-04-25 18:26 29.24779 -94.59378 497 ft 100 kts 107°
2026-04-25 18:26 29.24722 -94.58576 495 ft 102 kts 102°
2026-04-25 18:26 29.24710 -94.57775 500 ft 97 kts 98°
2026-04-25 18:27 29.24718 -94.57020 492 ft 95 kts 97°
2026-04-25 18:27 29.24733 -94.56252 495 ft 97 kts 96°
2026-04-25 18:27 29.24749 -94.55450 500 ft 103 kts 95°
2026-04-25 18:27 29.24758 -94.54639 500 ft 101 kts 98°
2026-04-25 18:28 29.24764 -94.53827 498 ft 103 kts 98°
2026-04-25 18:28 29.24770 -94.53009 500 ft 102 kts 96°
2026-04-25 18:28 29.24772 -94.52202 503 ft 101 kts 96°
2026-04-25 18:29 29.24931 -94.50581 493 ft 113 kts 66°
2026-04-25 18:29 29.25519 -94.49990 503 ft 116 kts 29°
2026-04-25 18:30 29.27899 -94.49775 502 ft 117 kts 358°
2026-04-25 18:30 29.28704 -94.49817 506 ft 113 kts
2026-04-25 18:30 29.29482 -94.49850 502 ft 114 kts 359°
2026-04-25 18:30 29.30274 -94.49872 500 ft 113 kts
2026-04-25 18:31 29.31073 -94.49887 503 ft 116 kts
2026-04-25 18:31 29.31869 -94.49895 499 ft 114 kts
2026-04-25 18:31 29.32670 -94.49900 502 ft 115 kts
2026-04-25 18:31 29.33454 -94.50099 495 ft 119 kts 330°
2026-04-25 18:32 29.33998 -94.50754 501 ft 111 kts 292°
2026-04-25 18:32 29.34141 -94.51594 500 ft 106 kts 269°
2026-04-25 18:32 29.34171 -94.52438 500 ft 106 kts 265°
2026-04-25 18:32 29.34172 -94.53296 504 ft 109 kts 265°
2026-04-25 18:33 29.34171 -94.54148 498 ft 107 kts 265°
2026-04-25 18:33 29.34170 -94.54996 500 ft 106 kts 266°
2026-04-25 18:33 29.34168 -94.55841 501 ft 105 kts 267°
2026-04-25 18:33 29.34169 -94.56680 498 ft 105 kts 266°
2026-04-25 18:34 29.34169 -94.57524 497 ft 108 kts 266°
2026-04-25 18:34 29.34166 -94.58387 496 ft 109 kts 267°
2026-04-25 18:34 29.34161 -94.59247 503 ft 104 kts 268°
2026-04-25 18:34 29.34164 -94.60061 501 ft 101 kts 266°
2026-04-25 18:35 29.34040 -94.60837 493 ft 99 kts 240°
2026-04-25 18:35 29.33533 -94.61395 491 ft 104 kts 204°
2026-04-25 18:35 29.32874 -94.61531 501 ft 90 kts 186°
2026-04-25 18:35 29.32248 -94.61572 490 ft 93 kts 182°
2026-04-25 18:36 29.31597 -94.61585 493 ft 93 kts 183°
2026-04-25 18:36 29.30943 -94.61585 500 ft 93 kts 179°
2026-04-25 18:36 29.30301 -94.61586 497 ft 94 kts 181°
2026-04-25 18:36 29.29648 -94.61585 484 ft 93 kts 182°
2026-04-25 18:37 29.28993 -94.61578 496 ft 95 kts 179°
2026-04-25 18:37 29.28319 -94.61573 496 ft 98 kts 180°
2026-04-25 18:37 29.27657 -94.61572 496 ft 92 kts 180°
2026-04-25 18:37 29.27011 -94.61573 491 ft 96 kts 179°
2026-04-25 18:38 29.26346 -94.61572 496 ft 94 kts 176°
2026-04-25 18:38 29.25695 -94.61575 497 ft 93 kts 181°
2026-04-25 18:38 29.25047 -94.61579 490 ft 95 kts 177°
2026-04-25 18:38 29.24613 -94.61517 494 ft 94 kts 161°
2026-04-25 18:39 29.24121 -94.61055 500 ft 93 kts 126°
2026-04-25 18:39 29.23961 -94.60340 496 ft 94 kts 103°
2026-04-25 18:39 29.23914 -94.59585 496 ft 94 kts 102°
2026-04-25 18:39 29.23903 -94.58833 486 ft 95 kts 98°
2026-04-25 18:40 29.23908 -94.57794 496 ft 102 kts 99°
2026-04-25 18:40 29.23912 -94.57245 498 ft 102 kts 99°
2026-04-25 18:40 29.23915 -94.56444 502 ft 97 kts 98°
2026-04-25 18:40 29.23917 -94.55681 493 ft 96 kts 98°
2026-04-25 18:41 29.23669 -94.55011 495 ft 93 kts 137°
2026-04-25 18:41 29.23081 -94.54756 497 ft 94 kts 179°
2026-04-25 18:41 29.22486 -94.55080 503 ft 99 kts 225°
2026-04-25 18:41 29.22216 -94.55808 493 ft 103 kts 252°
2026-04-25 18:42 29.22171 -94.56663 498 ft 114 kts 278°
2026-04-25 18:42 29.22251 -94.57254 500 ft 112 kts 269°
2026-04-25 18:42 29.22192 -94.58407 503 ft 105 kts 257°
2026-04-25 18:42 29.22088 -94.59251 497 ft 107 kts 256°
2026-04-25 18:43 29.21961 -94.60086 495 ft 108 kts 257°
2026-04-25 18:43 29.21832 -94.60907 486 ft 106 kts 254°
2026-04-25 18:43 29.21698 -94.61731 497 ft 106 kts 255°
2026-04-25 18:43 29.21562 -94.62575 491 ft 110 kts 254°
2026-04-25 18:44 29.21425 -94.63419 497 ft 103 kts 253°
2026-04-25 18:44 29.21299 -94.64218 494 ft 104 kts 256°
2026-04-25 18:44 29.21158 -94.65067 495 ft 111 kts 253°
2026-04-25 18:44 29.21022 -94.65916 497 ft 105 kts 253°
2026-04-25 18:45 29.20895 -94.66726 486 ft 103 kts 255°
2026-04-25 18:45 29.20765 -94.67528 496 ft 101 kts 255°
2026-04-25 18:45 29.20632 -94.68333 488 ft 106 kts 255°
2026-04-25 18:45 29.20499 -94.69147 500 ft 104 kts 256°
2026-04-25 18:46 29.20369 -94.69949 507 ft 100 kts 256°
2026-04-25 18:46 29.20245 -94.70729 505 ft 100 kts 258°
2026-04-25 18:46 29.20113 -94.71534 502 ft 107 kts 256°
2026-04-25 18:46 29.19977 -94.72373 515 ft 106 kts 253°
2026-04-25 18:47 29.19858 -94.73187 511 ft 101 kts 254°
2026-04-25 18:47 29.19741 -94.73978 505 ft 101 kts 258°
2026-04-25 18:47 29.19610 -94.74795 507 ft 107 kts 258°
2026-04-25 18:47 29.19480 -94.75615 509 ft 103 kts 255°
2026-04-25 18:48 29.19355 -94.76410 505 ft 103 kts 255°
2026-04-25 18:48 29.19218 -94.77233 508 ft 105 kts 255°
2026-04-25 18:48 29.19238 -94.78064 511 ft 108 kts 284°
2026-04-25 18:48 29.19747 -94.78728 509 ft 117 kts 329°
2026-04-25 18:49 29.20520 -94.78965 509 ft 114 kts 356°
2026-04-25 18:49 29.21310 -94.78992 508 ft 115 kts
2026-04-25 18:49 29.22126 -94.78945 514 ft 118 kts
2026-04-25 18:49 29.22916 -94.78881 510 ft 111 kts
2026-04-25 18:50 29.23724 -94.78832 516 ft 118 kts
2026-04-25 18:50 29.24513 -94.78801 505 ft 114 kts
2026-04-25 18:50 29.25319 -94.78790 510 ft 116 kts
2026-04-25 18:50 29.26138 -94.78787 510 ft 119 kts
2026-04-25 18:51 29.26954 -94.78785 510 ft 117 kts
2026-04-25 18:51 29.27499 -94.78786 508 ft 120 kts
2026-04-25 18:51 29.28607 -94.78737 518 ft 112 kts 19°
2026-04-25 18:51 29.29284 -94.78280 506 ft 115 kts 57°
2026-04-25 18:52 29.29573 -94.77539 517 ft 97 kts 94°
2026-04-25 18:52 29.29474 -94.76790 510 ft 95 kts 119°
2026-04-25 18:52 29.29179 -94.76113 511 ft 97 kts 127°
2026-04-25 18:52 29.28825 -94.75451 515 ft 94 kts 130°
2026-04-25 18:53 29.28477 -94.74822 514 ft 92 kts 130°
2026-04-25 18:53 29.28140 -94.74207 510 ft 93 kts 128°
2026-04-25 18:53 29.27801 -94.73570 509 ft 92 kts 128°
2026-04-25 18:53 29.27482 -94.72953 509 ft 90 kts 128°
2026-04-25 18:54 29.26833 -94.71729 509 ft 91 kts 128°
2026-04-25 18:54 29.26506 -94.71112 507 ft 91 kts 127°
2026-04-25 18:54 29.26178 -94.70484 509 ft 92 kts 128°
2026-04-25 18:55 29.25857 -94.69865 508 ft 90 kts 127°
2026-04-25 18:55 29.25535 -94.69237 507 ft 93 kts 126°
2026-04-25 18:55 29.25189 -94.68631 497 ft 88 kts 139°
2026-04-25 18:55 29.24629 -94.68356 492 ft 93 kts 176°
2026-04-25 18:56 29.24032 -94.68644 493 ft 95 kts 218°
2026-04-25 18:56 29.23623 -94.69238 498 ft 100 kts 232°
2026-04-25 18:56 29.23260 -94.69965 508 ft 106 kts 236°
2026-04-25 18:56 29.22947 -94.70692 506 ft 99 kts 237°
2026-04-25 18:57 29.22646 -94.71395 507 ft 98 kts 239°
2026-04-25 18:57 29.22333 -94.72096 501 ft 101 kts 236°
2026-04-25 18:57 29.22006 -94.72794 505 ft 100 kts 239°
2026-04-25 18:57 29.21786 -94.73251 506 ft 97 kts 238°
2026-04-25 18:58 29.21342 -94.74156 488 ft 102 kts 238°
2026-04-25 18:58 29.20644 -94.75561 500 ft 98 kts 238°
2026-04-25 18:58 29.20299 -94.76254 492 ft 104 kts 237°
2026-04-25 18:59 29.19602 -94.77639 493 ft 102 kts 235°
2026-04-25 18:59 29.18891 -94.79022 500 ft 100 kts 236°
2026-04-25 19:00 29.18188 -94.80410 502 ft 99 kts 236°
2026-04-25 19:00 29.17830 -94.81116 500 ft 106 kts 237°
2026-04-25 19:01 29.17112 -94.82540 506 ft 102 kts 233°
2026-04-25 19:01 29.16776 -94.83219 503 ft 98 kts 234°
2026-04-25 19:01 29.16420 -94.83920 499 ft 104 kts 231°
2026-04-25 19:01 29.16064 -94.84617 501 ft 99 kts 235°
2026-04-25 19:02 29.15345 -94.86011 505 ft 101 kts 235°
2026-04-25 19:02 29.15000 -94.86693 504 ft 98 kts 236°
2026-04-25 19:02 29.14654 -94.87378 493 ft 101 kts 237°
2026-04-25 19:03 29.14190 -94.88289 505 ft 99 kts 235°
2026-04-25 19:03 29.13828 -94.89571 495 ft 113 kts 272°
2026-04-25 19:03 29.14230 -94.90372 501 ft 122 kts 317°
2026-04-25 19:04 29.15805 -94.90772 505 ft 115 kts
2026-04-25 19:04 29.16609 -94.90634 500 ft 118 kts 14°
2026-04-25 19:05 29.18253 -94.90403 504 ft 119 kts
2026-04-25 19:05 29.19904 -94.90336 501 ft 123 kts
2026-04-25 19:05 29.20754 -94.90326 510 ft 120 kts
2026-04-25 19:06 29.21590 -94.90317 498 ft 122 kts
2026-04-25 19:06 29.23164 -94.90113 497 ft 107 kts 36°
2026-04-25 19:06 29.23665 -94.89486 496 ft 108 kts 76°
2026-04-25 19:07 29.23486 -94.87956 504 ft 96 kts 124°
2026-04-25 19:07 29.23149 -94.87296 500 ft 96 kts 127°
2026-04-25 19:08 29.22442 -94.85990 503 ft 96 kts 128°
2026-04-25 19:08 29.22100 -94.85343 501 ft 94 kts 127°
2026-04-25 19:09 29.21097 -94.83384 502 ft 93 kts 127°
2026-04-25 19:09 29.20881 -94.82959 501 ft 93 kts 127°
2026-04-25 19:09 29.20112 -94.81448 500 ft 96 kts 127°
2026-04-25 19:10 29.19769 -94.80790 503 ft 96 kts 128°
2026-04-25 19:10 29.19429 -94.80142 501 ft 95 kts 127°
2026-04-25 19:10 29.19085 -94.79480 502 ft 98 kts 127°
2026-04-25 19:10 29.18742 -94.78814 503 ft 96 kts 128°
2026-04-25 19:11 29.18400 -94.78149 500 ft 98 kts 126°
2026-04-25 19:11 29.18055 -94.77471 504 ft 98 kts 127°
2026-04-25 19:11 29.17714 -94.76803 500 ft 98 kts 127°
2026-04-25 19:11 29.17367 -94.76121 501 ft 100 kts 127°
2026-04-25 19:12 29.17021 -94.75441 501 ft 99 kts 127°
2026-04-25 19:12 29.16676 -94.74764 501 ft 98 kts 128°
2026-04-25 19:12 29.16334 -94.74091 500 ft 98 kts 127°
2026-04-25 19:12 29.15989 -94.73413 499 ft 100 kts 126°
2026-04-25 19:13 29.15641 -94.72728 500 ft 100 kts 126°
2026-04-25 19:13 29.15295 -94.72047 500 ft 98 kts 126°
2026-04-25 19:13 29.14951 -94.71369 498 ft 99 kts 126°
2026-04-25 19:13 29.14603 -94.70682 499 ft 100 kts 125°
2026-04-25 19:14 29.14255 -94.69995 491 ft 99 kts 126°
2026-04-25 19:14 29.14143 -94.69773 498 ft 99 kts 126°
2026-04-25 19:14 29.13495 -94.68714 493 ft 94 kts 148°
2026-04-25 19:14 29.12879 -94.68520 488 ft 95 kts 184°
2026-04-25 19:15 29.12292 -94.68844 503 ft 96 kts 220°
2026-04-25 19:15 29.11868 -94.69462 489 ft 105 kts 234°
2026-04-25 19:15 29.11499 -94.70183 500 ft 104 kts 238°
2026-04-25 19:15 29.11163 -94.70919 503 ft 104 kts 238°
2026-04-25 19:16 29.10848 -94.71638 499 ft 101 kts 239°
2026-04-25 19:16 29.10512 -94.72370 493 ft 105 kts 235°
2026-04-25 19:16 29.10173 -94.73084 497 ft 101 kts 238°
2026-04-25 19:16 29.09825 -94.73792 499 ft 102 kts 236°
2026-04-25 19:17 29.09482 -94.74485 500 ft 98 kts 235°
2026-04-25 19:17 29.09144 -94.75166 491 ft 99 kts 236°
2026-04-25 19:17 29.08794 -94.75852 501 ft 99 kts 234°
2026-04-25 19:17 29.08448 -94.76538 499 ft 101 kts 236°
2026-04-25 19:18 29.08097 -94.77240 498 ft 102 kts 236°
2026-04-25 19:18 29.08008 -94.78073 495 ft 114 kts 277°
2026-04-25 19:18 29.08443 -94.78826 497 ft 118 kts 321°
2026-04-25 19:18 29.09222 -94.79156 499 ft 122 kts 356°
2026-04-25 19:19 29.10042 -94.79176 505 ft 114 kts
2026-04-25 19:19 29.10838 -94.79077 494 ft 117 kts 11°
2026-04-25 19:19 29.11642 -94.78965 499 ft 116 kts 11°
2026-04-25 19:19 29.11904 -94.78932 494 ft 118 kts
2026-04-25 19:20 29.13266 -94.78810 492 ft 113 kts
2026-04-25 19:20 29.14080 -94.78773 497 ft 120 kts
2026-04-25 19:20 29.14909 -94.78752 506 ft 118 kts
2026-04-25 19:20 29.15733 -94.78736 500 ft 118 kts
2026-04-25 19:21 29.16543 -94.78729 508 ft 114 kts
2026-04-25 19:21 29.17907 -94.79481 506 ft 114 kts 297°
2026-04-25 19:21 29.18082 -94.80314 502 ft 105 kts 258°
2026-04-25 19:22 29.17944 -94.80828 493 ft 101 kts 239°
2026-04-25 19:22 29.17619 -94.81563 504 ft 106 kts 241°
2026-04-25 19:22 29.16963 -94.83024 510 ft 100 kts 236°
2026-04-25 19:23 29.16542 -94.83950 495 ft 101 kts 234°
2026-04-25 19:23 29.15977 -94.85142 497 ft 98 kts 236°
2026-04-25 19:23 29.15637 -94.85843 496 ft 103 kts 236°
2026-04-25 19:24 29.15292 -94.86555 504 ft 101 kts 236°
2026-04-25 19:24 29.14961 -94.87249 503 ft 99 kts 238°
2026-04-25 19:24 29.14293 -94.88642 506 ft 99 kts 237°
2026-04-25 19:25 29.13619 -94.90056 498 ft 101 kts 233°
2026-04-25 19:25 29.13282 -94.90758 498 ft 101 kts 238°
2026-04-25 19:25 29.12944 -94.91455 497 ft 102 kts 234°
2026-04-25 19:26 29.12603 -94.92159 491 ft 99 kts 235°
2026-04-25 19:26 29.12269 -94.92844 502 ft 101 kts 236°
2026-04-25 19:26 29.11931 -94.93546 490 ft 102 kts 237°
2026-04-25 19:26 29.11586 -94.94258 505 ft 102 kts 237°
2026-04-25 19:27 29.11247 -94.94969 495 ft 105 kts 238°
2026-04-25 19:27 29.11012 -94.95462 504 ft 103 kts 236°
2026-04-25 19:27 29.10563 -94.96418 492 ft 103 kts 233°
2026-04-25 19:27 29.10221 -94.97125 491 ft 100 kts 235°
2026-04-25 19:28 29.10137 -94.97940 496 ft 114 kts 277°
2026-04-25 19:28 29.10588 -94.98722 500 ft 123 kts 322°
2026-04-25 19:28 29.11368 -94.99019 499 ft 116 kts
2026-04-25 19:28 29.12105 -94.98701 498 ft 112 kts 47°
2026-04-25 19:29 29.12633 -94.98082 493 ft 108 kts 58°
2026-04-25 19:29 29.13113 -94.97438 496 ft 105 kts 56°
2026-04-25 19:29 29.13636 -94.96818 492 ft 110 kts 51°
2026-04-25 19:29 29.14210 -94.96239 496 ft 111 kts 46°
2026-04-25 19:30 29.14814 -94.95686 488 ft 113 kts 46°
2026-04-25 19:30 29.15450 -94.95142 503 ft 113 kts 44°
2026-04-25 19:30 29.16081 -94.94613 497 ft 115 kts 46°
2026-04-25 19:30 29.16728 -94.94074 507 ft 113 kts 44°
2026-04-25 19:31 29.17359 -94.93544 496 ft 115 kts 43°
2026-04-25 19:31 29.18009 -94.93004 505 ft 115 kts 44°
2026-04-25 19:31 29.18671 -94.92457 503 ft 117 kts 43°
2026-04-25 19:31 29.19312 -94.91928 500 ft 112 kts 43°
2026-04-25 19:32 29.19959 -94.91396 504 ft 115 kts 47°
2026-04-25 19:32 29.20595 -94.90871 505 ft 112 kts 44°
2026-04-25 19:32 29.21246 -94.90326 503 ft 116 kts 46°
2026-04-25 19:32 29.21668 -94.89978 494 ft 112 kts 45°
2026-04-25 19:33 29.22490 -94.89294 498 ft 107 kts 43°
2026-04-25 19:33 29.23124 -94.88770 503 ft 115 kts 43°
2026-04-25 19:33 29.23749 -94.88252 514 ft 103 kts 42°
2026-04-25 19:33 29.24274 -94.87812 492 ft 85 kts 44°
2026-04-25 19:34 29.24740 -94.87461 425 ft 78 kts 31°
2026-04-25 19:34 29.25233 -94.87268 438 ft 72 kts 23°
2026-04-25 19:34 29.25689 -94.87093 456 ft 66 kts 26°
2026-04-25 19:34 29.26115 -94.86958 524 ft 61 kts 22°
2026-04-25 19:35 29.26483 -94.86784 434 ft 55 kts 42°
2026-04-25 19:35 29.26778 -94.86537 418 ft 49 kts 54°
2026-04-25 19:35 29.26933 -94.86248 246 ft 39 kts 78°
2026-04-25 19:35 29.26948 -94.85970 150 ft 31 kts 99°
2026-04-25 19:36 29.26917 -94.85786 68 ft 17 kts 110°
2026-04-25 19:36 29.26868 -94.85715 31 ft 6 kts 123°
2026-04-25 19:36 29.26860 -94.85685 39 ft 4 kts 128°
2026-04-25 19:36 29.26861 -94.85666 20 ft 1 kts 152°
2026-04-25 19:37 29.26862 -94.85665 14 ft 0 kts 159°